sensor_id;sensor_type;location;lat;lon;timestamp;temperature;humidity
46217;DHT22;47258;59.424;13.482;2023-09-18T00:02:11;9.60;99.90
46217;DHT22;47258;59.424;13.482;2023-09-18T00:04:37;9.60;99.90
46217;DHT22;47258;59.424;13.482;2023-09-18T00:07:04;9.60;99.90
46217;DHT22;47258;59.424;13.482;2023-09-18T00:09:31;9.60;99.90
46217;DHT22;47258;59.424;13.482;2023-09-18T00:11:58;9.60;99.90
46217;DHT22;47258;59.424;13.482;2023-09-18T00:14:25;9.60;99.90
46217;DHT22;47258;59.424;13.482;2023-09-18T00:16:53;9.60;99.90
46217;DHT22;47258;59.424;13.482;2023-09-18T00:19:24;9.60;99.90
46217;DHT22;47258;59.424;13.482;2023-09-18T00:21:51;9.60;99.90
46217;DHT22;47258;59.424;13.482;2023-09-18T00:24:20;9.60;99.90
46217;DHT22;47258;59.424;13.482;2023-09-18T00:26:47;9.60;99.90
46217;DHT22;47258;59.424;13.482;2023-09-18T00:29:14;9.50;99.90
46217;DHT22;47258;59.424;13.482;2023-09-18T00:31:41;9.50;99.90
46217;DHT22;47258;59.424;13.482;2023-09-18T00:34:08;9.50;99.90
46217;DHT22;47258;59.424;13.482;2023-09-18T00:36:36;9.40;99.90
46217;DHT22;47258;59.424;13.482;2023-09-18T00:39:03;9.40;99.90
46217;DHT22;47258;59.424;13.482;2023-09-18T00:41:30;9.40;99.90
46217;DHT22;47258;59.424;13.482;2023-09-18T00:43:57;9.40;99.90
46217;DHT22;47258;59.424;13.482;2023-09-18T00:46:25;9.40;99.90
46217;DHT22;47258;59.424;13.482;2023-09-18T00:48:52;9.40;99.90
46217;DHT22;47258;59.424;13.482;2023-09-18T00:51:20;9.40;99.90
46217;DHT22;47258;59.424;13.482;2023-09-18T00:53:48;9.40;99.90
46217;DHT22;47258;59.424;13.482;2023-09-18T00:56:16;9.30;99.90
46217;DHT22;47258;59.424;13.482;2023-09-18T00:58:45;9.30;99.90
46217;DHT22;47258;59.424;13.482;2023-09-18T01:01:12;9.30;99.90
46217;DHT22;47258;59.424;13.482;2023-09-18T01:03:40;9.30;99.90
46217;DHT22;47258;59.424;13.482;2023-09-18T01:06:07;9.30;99.90
46217;DHT22;47258;59.424;13.482;2023-09-18T01:08:34;9.30;99.90
46217;DHT22;47258;59.424;13.482;2023-09-18T01:11:06;9.30;99.90
46217;DHT22;47258;59.424;13.482;2023-09-18T01:13:41;9.30;99.90
46217;DHT22;47258;59.424;13.482;2023-09-18T01:16:17;9.30;99.90
46217;DHT22;47258;59.424;13.482;2023-09-18T01:18:51;9.30;99.90
46217;DHT22;47258;59.424;13.482;2023-09-18T01:21:19;9.20;99.90
46217;DHT22;47258;59.424;13.482;2023-09-18T01:23:47;9.20;99.90
46217;DHT22;47258;59.424;13.482;2023-09-18T01:26:17;9.20;99.90
46217;DHT22;47258;59.424;13.482;2023-09-18T01:28:44;9.20;99.90
46217;DHT22;47258;59.424;13.482;2023-09-18T01:31:11;9.20;99.90
46217;DHT22;47258;59.424;13.482;2023-09-18T01:33:38;9.10;99.90
46217;DHT22;47258;59.424;13.482;2023-09-18T01:36:07;9.10;99.90
46217;DHT22;47258;59.424;13.482;2023-09-18T01:38:35;9.20;99.90
46217;DHT22;47258;59.424;13.482;2023-09-18T01:41:03;9.10;99.90
46217;DHT22;47258;59.424;13.482;2023-09-18T01:43:31;9.20;99.90
46217;DHT22;47258;59.424;13.482;2023-09-18T01:45:57;9.20;99.90
46217;DHT22;47258;59.424;13.482;2023-09-18T01:48:24;9.20;99.90
46217;DHT22;47258;59.424;13.482;2023-09-18T01:50:51;9.10;99.90
46217;DHT22;47258;59.424;13.482;2023-09-18T01:53:18;9.10;99.90
46217;DHT22;47258;59.424;13.482;2023-09-18T01:55:45;9.20;99.90
46217;DHT22;47258;59.424;13.482;2023-09-18T01:58:14;9.20;99.90
46217;DHT22;47258;59.424;13.482;2023-09-18T02:00:41;9.20;99.90
46217;DHT22;47258;59.424;13.482;2023-09-18T02:03:08;9.20;99.90
46217;DHT22;47258;59.424;13.482;2023-09-18T02:05:35;9.20;99.90
46217;DHT22;47258;59.424;13.482;2023-09-18T02:08:03;9.30;99.90
46217;DHT22;47258;59.424;13.482;2023-09-18T02:10:30;9.30;99.90
46217;DHT22;47258;59.424;13.482;2023-09-18T02:12:57;9.40;99.90
46217;DHT22;47258;59.424;13.482;2023-09-18T02:15:25;9.40;99.90
46217;DHT22;47258;59.424;13.482;2023-09-18T02:17:52;9.40;99.90
46217;DHT22;47258;59.424;13.482;2023-09-18T02:20:19;9.40;99.90
46217;DHT22;47258;59.424;13.482;2023-09-18T02:22:46;9.50;99.90
46217;DHT22;47258;59.424;13.482;2023-09-18T02:25:14;9.50;99.90
46217;DHT22;47258;59.424;13.482;2023-09-18T02:27:41;9.50;99.90
46217;DHT22;47258;59.424;13.482;2023-09-18T02:30:08;9.50;99.90
46217;DHT22;47258;59.424;13.482;2023-09-18T02:32:37;9.50;99.90
46217;DHT22;47258;59.424;13.482;2023-09-18T02:35:05;9.50;99.90
46217;DHT22;47258;59.424;13.482;2023-09-18T02:37:33;9.50;99.90
46217;DHT22;47258;59.424;13.482;2023-09-18T02:39:59;9.50;99.90
46217;DHT22;47258;59.424;13.482;2023-09-18T02:42:27;9.50;99.90
46217;DHT22;47258;59.424;13.482;2023-09-18T02:44:54;9.50;99.90
46217;DHT22;47258;59.424;13.482;2023-09-18T02:47:21;9.50;99.90
46217;DHT22;47258;59.424;13.482;2023-09-18T02:49:49;9.50;99.90
46217;DHT22;47258;59.424;13.482;2023-09-18T02:52:16;9.50;99.90
46217;DHT22;47258;59.424;13.482;2023-09-18T02:54:43;9.40;99.90
46217;DHT22;47258;59.424;13.482;2023-09-18T02:57:10;9.40;99.90
46217;DHT22;47258;59.424;13.482;2023-09-18T02:59:37;9.40;99.90
46217;DHT22;47258;59.424;13.482;2023-09-18T03:02:04;9.40;99.90
46217;DHT22;47258;59.424;13.482;2023-09-18T03:04:31;9.40;99.90
46217;DHT22;47258;59.424;13.482;2023-09-18T03:07:00;9.50;99.90
46217;DHT22;47258;59.424;13.482;2023-09-18T03:09:27;9.50;99.90
46217;DHT22;47258;59.424;13.482;2023-09-18T03:11:54;9.50;99.90
46217;DHT22;47258;59.424;13.482;2023-09-18T03:14:20;9.50;99.90
46217;DHT22;47258;59.424;13.482;2023-09-18T03:16:47;9.50;99.90
46217;DHT22;47258;59.424;13.482;2023-09-18T03:19:15;9.50;99.90
46217;DHT22;47258;59.424;13.482;2023-09-18T03:21:42;9.50;99.90
46217;DHT22;47258;59.424;13.482;2023-09-18T03:24:11;9.50;99.90
46217;DHT22;47258;59.424;13.482;2023-09-18T03:26:38;9.50;99.90
46217;DHT22;47258;59.424;13.482;2023-09-18T03:29:04;9.50;99.90
46217;DHT22;47258;59.424;13.482;2023-09-18T03:31:31;9.50;99.90
46217;DHT22;47258;59.424;13.482;2023-09-18T03:33:58;9.50;99.90
46217;DHT22;47258;59.424;13.482;2023-09-18T03:36:25;9.50;99.90
46217;DHT22;47258;59.424;13.482;2023-09-18T03:38:52;9.50;99.90
46217;DHT22;47258;59.424;13.482;2023-09-18T03:41:20;9.50;99.90
46217;DHT22;47258;59.424;13.482;2023-09-18T03:43:47;9.50;99.90
46217;DHT22;47258;59.424;13.482;2023-09-18T03:46:15;9.50;99.90
46217;DHT22;47258;59.424;13.482;2023-09-18T03:48:42;9.50;99.90
46217;DHT22;47258;59.424;13.482;2023-09-18T03:51:08;9.60;99.90
46217;DHT22;47258;59.424;13.482;2023-09-18T03:53:36;9.60;99.90
46217;DHT22;47258;59.424;13.482;2023-09-18T03:56:03;9.60;99.90
46217;DHT22;47258;59.424;13.482;2023-09-18T03:58:31;9.60;99.90
46217;DHT22;47258;59.424;13.482;2023-09-18T04:00:58;9.70;99.90
46217;DHT22;47258;59.424;13.482;2023-09-18T04:03:25;9.70;99.90
46217;DHT22;47258;59.424;13.482;2023-09-18T04:05:52;9.70;99.90
46217;DHT22;47258;59.424;13.482;2023-09-18T04:08:19;9.80;99.90
46217;DHT22;47258;59.424;13.482;2023-09-18T04:10:46;9.80;99.90
46217;DHT22;47258;59.424;13.482;2023-09-18T04:13:13;9.80;99.90
46217;DHT22;47258;59.424;13.482;2023-09-18T04:15:41;9.90;99.90
46217;DHT22;47258;59.424;13.482;2023-09-18T04:18:08;9.90;99.90
46217;DHT22;47258;59.424;13.482;2023-09-18T04:20:35;9.90;99.90
46217;DHT22;47258;59.424;13.482;2023-09-18T04:23:20;10.00;99.90
46217;DHT22;47258;59.424;13.482;2023-09-18T04:25:47;10.00;99.90
46217;DHT22;47258;59.424;13.482;2023-09-18T04:28:15;10.00;99.90
46217;DHT22;47258;59.424;13.482;2023-09-18T04:30:44;10.10;99.90
46217;DHT22;47258;59.424;13.482;2023-09-18T04:33:11;10.10;99.90
46217;DHT22;47258;59.424;13.482;2023-09-18T04:35:38;10.10;99.90
46217;DHT22;47258;59.424;13.482;2023-09-18T04:38:07;10.10;99.90
46217;DHT22;47258;59.424;13.482;2023-09-18T04:40:34;10.20;99.90
46217;DHT22;47258;59.424;13.482;2023-09-18T04:43:01;10.20;99.90
46217;DHT22;47258;59.424;13.482;2023-09-18T04:45:30;10.20;99.90
46217;DHT22;47258;59.424;13.482;2023-09-18T04:47:58;10.20;99.90
46217;DHT22;47258;59.424;13.482;2023-09-18T04:50:26;10.20;99.90
46217;DHT22;47258;59.424;13.482;2023-09-18T04:52:53;10.30;99.90
46217;DHT22;47258;59.424;13.482;2023-09-18T04:55:22;10.30;99.90
46217;DHT22;47258;59.424;13.482;2023-09-18T04:57:49;10.30;99.90
46217;DHT22;47258;59.424;13.482;2023-09-18T05:00:16;10.30;99.90
46217;DHT22;47258;59.424;13.482;2023-09-18T05:02:43;10.40;99.90
46217;DHT22;47258;59.424;13.482;2023-09-18T05:05:12;10.40;99.90
46217;DHT22;47258;59.424;13.482;2023-09-18T05:07:39;10.40;99.90
46217;DHT22;47258;59.424;13.482;2023-09-18T05:10:07;10.40;99.90
46217;DHT22;47258;59.424;13.482;2023-09-18T05:12:34;10.40;99.90
46217;DHT22;47258;59.424;13.482;2023-09-18T05:15:00;10.50;99.90
46217;DHT22;47258;59.424;13.482;2023-09-18T05:17:40;10.40;99.90
46217;DHT22;47258;59.424;13.482;2023-09-18T05:20:16;10.50;99.90
46217;DHT22;47258;59.424;13.482;2023-09-18T05:22:43;10.50;99.90
46217;DHT22;47258;59.424;13.482;2023-09-18T05:25:11;10.50;99.90
46217;DHT22;47258;59.424;13.482;2023-09-18T05:27:40;10.50;99.90
46217;DHT22;47258;59.424;13.482;2023-09-18T05:30:14;10.50;99.90
46217;DHT22;47258;59.424;13.482;2023-09-18T05:32:42;10.60;99.90
46217;DHT22;47258;59.424;13.482;2023-09-18T05:35:09;10.60;99.90
46217;DHT22;47258;59.424;13.482;2023-09-18T05:37:39;10.60;99.90
46217;DHT22;47258;59.424;13.482;2023-09-18T05:40:08;10.70;99.90
46217;DHT22;47258;59.424;13.482;2023-09-18T05:42:35;10.70;99.90
46217;DHT22;47258;59.424;13.482;2023-09-18T05:45:03;10.70;99.90
46217;DHT22;47258;59.424;13.482;2023-09-18T05:47:32;10.70;99.90
46217;DHT22;47258;59.424;13.482;2023-09-18T05:49:58;10.80;99.90
46217;DHT22;47258;59.424;13.482;2023-09-18T05:52:25;10.80;99.90
46217;DHT22;47258;59.424;13.482;2023-09-18T05:54:54;10.90;99.90
46217;DHT22;47258;59.424;13.482;2023-09-18T05:57:21;10.90;99.90
46217;DHT22;47258;59.424;13.482;2023-09-18T05:59:48;11.00;99.90
46217;DHT22;47258;59.424;13.482;2023-09-18T06:02:15;11.00;99.90
46217;DHT22;47258;59.424;13.482;2023-09-18T06:04:42;11.00;99.90
46217;DHT22;47258;59.424;13.482;2023-09-18T06:07:09;11.10;99.90
46217;DHT22;47258;59.424;13.482;2023-09-18T06:09:38;11.10;99.90
46217;DHT22;47258;59.424;13.482;2023-09-18T06:12:07;11.10;99.90
46217;DHT22;47258;59.424;13.482;2023-09-18T06:14:35;11.10;99.90
46217;DHT22;47258;59.424;13.482;2023-09-18T06:17:04;11.20;99.90
46217;DHT22;47258;59.424;13.482;2023-09-18T06:19:31;11.20;99.90
46217;DHT22;47258;59.424;13.482;2023-09-18T06:21:58;11.20;99.90
46217;DHT22;47258;59.424;13.482;2023-09-18T06:24:25;11.20;99.90
46217;DHT22;47258;59.424;13.482;2023-09-18T06:26:52;11.20;99.90
46217;DHT22;47258;59.424;13.482;2023-09-18T06:29:21;11.20;99.90
46217;DHT22;47258;59.424;13.482;2023-09-18T06:31:49;11.20;99.90
46217;DHT22;47258;59.424;13.482;2023-09-18T06:34:16;11.30;99.90
46217;DHT22;47258;59.424;13.482;2023-09-18T06:36:42;11.30;99.90
46217;DHT22;47258;59.424;13.482;2023-09-18T06:39:09;11.30;99.90
46217;DHT22;47258;59.424;13.482;2023-09-18T06:41:36;11.30;99.90
46217;DHT22;47258;59.424;13.482;2023-09-18T06:44:03;11.40;99.90
46217;DHT22;47258;59.424;13.482;2023-09-18T06:46:32;11.40;99.90
46217;DHT22;47258;59.424;13.482;2023-09-18T06:48:59;11.40;99.90
46217;DHT22;47258;59.424;13.482;2023-09-18T06:51:26;11.40;99.90
46217;DHT22;47258;59.424;13.482;2023-09-18T06:53:54;11.50;99.90
46217;DHT22;47258;59.424;13.482;2023-09-18T06:56:22;11.50;99.90
46217;DHT22;47258;59.424;13.482;2023-09-18T06:58:49;11.60;99.90
46217;DHT22;47258;59.424;13.482;2023-09-18T07:01:17;11.60;99.90
46217;DHT22;47258;59.424;13.482;2023-09-18T07:03:46;11.60;99.90
46217;DHT22;47258;59.424;13.482;2023-09-18T07:06:14;11.60;99.90
46217;DHT22;47258;59.424;13.482;2023-09-18T07:08:41;11.70;99.90
46217;DHT22;47258;59.424;13.482;2023-09-18T07:11:08;11.70;99.90
46217;DHT22;47258;59.424;13.482;2023-09-18T07:13:36;11.70;99.90
46217;DHT22;47258;59.424;13.482;2023-09-18T07:16:03;11.80;99.90
46217;DHT22;47258;59.424;13.482;2023-09-18T07:18:30;11.80;99.90
46217;DHT22;47258;59.424;13.482;2023-09-18T07:20:58;11.80;99.90
46217;DHT22;47258;59.424;13.482;2023-09-18T07:23:25;11.80;99.90
46217;DHT22;47258;59.424;13.482;2023-09-18T07:25:52;11.80;99.90
46217;DHT22;47258;59.424;13.482;2023-09-18T07:28:19;11.80;99.90
46217;DHT22;47258;59.424;13.482;2023-09-18T07:30:46;11.80;99.90
46217;DHT22;47258;59.424;13.482;2023-09-18T07:33:14;11.80;99.90
46217;DHT22;47258;59.424;13.482;2023-09-18T07:35:45;11.80;99.90
46217;DHT22;47258;59.424;13.482;2023-09-18T07:38:14;11.80;99.90
46217;DHT22;47258;59.424;13.482;2023-09-18T07:40:41;11.90;99.90
46217;DHT22;47258;59.424;13.482;2023-09-18T07:43:08;11.90;99.90
46217;DHT22;47258;59.424;13.482;2023-09-18T07:45:37;11.90;99.90
46217;DHT22;47258;59.424;13.482;2023-09-18T07:48:05;12.00;99.90
46217;DHT22;47258;59.424;13.482;2023-09-18T07:50:32;12.00;99.90
46217;DHT22;47258;59.424;13.482;2023-09-18T07:52:59;12.10;99.90
46217;DHT22;47258;59.424;13.482;2023-09-18T07:55:28;12.20;99.90
46217;DHT22;47258;59.424;13.482;2023-09-18T07:57:55;12.30;99.90
46217;DHT22;47258;59.424;13.482;2023-09-18T08:00:23;12.40;99.90
46217;DHT22;47258;59.424;13.482;2023-09-18T08:02:51;12.40;99.90
46217;DHT22;47258;59.424;13.482;2023-09-18T08:05:20;12.50;99.90
46217;DHT22;47258;59.424;13.482;2023-09-18T08:07:47;12.60;99.90
46217;DHT22;47258;59.424;13.482;2023-09-18T08:10:14;12.70;99.90
46217;DHT22;47258;59.424;13.482;2023-09-18T08:12:43;12.70;99.90
46217;DHT22;47258;59.424;13.482;2023-09-18T08:15:10;12.80;99.90
46217;DHT22;47258;59.424;13.482;2023-09-18T08:17:37;12.90;99.90
46217;DHT22;47258;59.424;13.482;2023-09-18T08:20:07;13.00;99.90
46217;DHT22;47258;59.424;13.482;2023-09-18T08:22:38;13.10;99.90
46217;DHT22;47258;59.424;13.482;2023-09-18T08:25:06;13.20;99.90
46217;DHT22;47258;59.424;13.482;2023-09-18T08:27:36;13.30;99.90
46217;DHT22;47258;59.424;13.482;2023-09-18T08:30:05;13.40;99.90
46217;DHT22;47258;59.424;13.482;2023-09-18T08:32:32;13.40;99.90
46217;DHT22;47258;59.424;13.482;2023-09-18T08:35:00;13.50;99.90
46217;DHT22;47258;59.424;13.482;2023-09-18T08:37:27;13.60;99.90
46217;DHT22;47258;59.424;13.482;2023-09-18T08:39:54;13.60;99.90
46217;DHT22;47258;59.424;13.482;2023-09-18T08:42:21;13.70;99.90
46217;DHT22;47258;59.424;13.482;2023-09-18T08:44:51;13.80;99.90
46217;DHT22;47258;59.424;13.482;2023-09-18T08:47:20;13.90;99.90
46217;DHT22;47258;59.424;13.482;2023-09-18T08:49:49;14.00;99.90
46217;DHT22;47258;59.424;13.482;2023-09-18T08:52:18;14.00;99.90
46217;DHT22;47258;59.424;13.482;2023-09-18T08:54:46;14.00;99.90
46217;DHT22;47258;59.424;13.482;2023-09-18T08:57:13;14.00;99.90
46217;DHT22;47258;59.424;13.482;2023-09-18T08:59:40;14.00;99.90
46217;DHT22;47258;59.424;13.482;2023-09-18T09:02:07;14.00;99.90
46217;DHT22;47258;59.424;13.482;2023-09-18T09:04:38;14.00;99.90
46217;DHT22;47258;59.424;13.482;2023-09-18T09:07:05;14.00;99.90
46217;DHT22;47258;59.424;13.482;2023-09-18T09:09:32;14.00;99.90
46217;DHT22;47258;59.424;13.482;2023-09-18T09:11:59;14.00;99.90
46217;DHT22;47258;59.424;13.482;2023-09-18T09:14:26;14.00;99.90
46217;DHT22;47258;59.424;13.482;2023-09-18T09:16:55;14.00;99.90
46217;DHT22;47258;59.424;13.482;2023-09-18T09:19:29;14.00;99.90
46217;DHT22;47258;59.424;13.482;2023-09-18T09:21:58;14.00;99.90
46217;DHT22;47258;59.424;13.482;2023-09-18T09:24:40;14.00;99.90
46217;DHT22;47258;59.424;13.482;2023-09-18T09:27:07;14.10;99.90
46217;DHT22;47258;59.424;13.482;2023-09-18T09:29:35;14.20;99.90
46217;DHT22;47258;59.424;13.482;2023-09-18T09:32:15;14.30;99.90
46217;DHT22;47258;59.424;13.482;2023-09-18T09:34:43;14.40;99.90
46217;DHT22;47258;59.424;13.482;2023-09-18T09:37:13;14.40;99.90
46217;DHT22;47258;59.424;13.482;2023-09-18T09:39:47;14.50;99.90
46217;DHT22;47258;59.424;13.482;2023-09-18T09:42:16;14.60;99.90
46217;DHT22;47258;59.424;13.482;2023-09-18T09:45:01;14.70;99.90
46217;DHT22;47258;59.424;13.482;2023-09-18T09:47:33;14.70;99.90
46217;DHT22;47258;59.424;13.482;2023-09-18T09:50:06;14.70;99.90
46217;DHT22;47258;59.424;13.482;2023-09-18T09:52:40;14.70;99.90
46217;DHT22;47258;59.424;13.482;2023-09-18T09:55:18;14.70;99.90
46217;DHT22;47258;59.424;13.482;2023-09-18T09:57:47;14.80;99.90
46217;DHT22;47258;59.424;13.482;2023-09-18T10:00:14;14.80;99.90
46217;DHT22;47258;59.424;13.482;2023-09-18T10:02:54;14.80;99.90
46217;DHT22;47258;59.424;13.482;2023-09-18T10:05:26;14.80;99.90
46217;DHT22;47258;59.424;13.482;2023-09-18T10:07:57;14.80;99.90
46217;DHT22;47258;59.424;13.482;2023-09-18T10:10:30;14.80;99.90
46217;DHT22;47258;59.424;13.482;2023-09-18T10:13:02;14.90;99.90
46217;DHT22;47258;59.424;13.482;2023-09-18T10:15:33;14.80;99.90
46217;DHT22;47258;59.424;13.482;2023-09-18T10:18:05;14.80;99.90
46217;DHT22;47258;59.424;13.482;2023-09-18T10:20:38;14.90;99.90
46217;DHT22;47258;59.424;13.482;2023-09-18T10:23:15;14.90;99.90
46217;DHT22;47258;59.424;13.482;2023-09-18T10:25:48;14.90;99.90
46217;DHT22;47258;59.424;13.482;2023-09-18T10:28:18;14.90;99.90
46217;DHT22;47258;59.424;13.482;2023-09-18T10:30:46;15.00;99.90
46217;DHT22;47258;59.424;13.482;2023-09-18T10:33:16;15.00;99.90
46217;DHT22;47258;59.424;13.482;2023-09-18T10:35:43;15.00;99.90
46217;DHT22;47258;59.424;13.482;2023-09-18T10:38:15;14.90;99.90
46217;DHT22;47258;59.424;13.482;2023-09-18T10:40:43;14.90;99.90
46217;DHT22;47258;59.424;13.482;2023-09-18T10:43:16;14.90;99.90
46217;DHT22;47258;59.424;13.482;2023-09-18T10:45:43;14.90;99.90
46217;DHT22;47258;59.424;13.482;2023-09-18T10:48:12;14.90;99.90
46217;DHT22;47258;59.424;13.482;2023-09-18T10:50:42;14.90;99.90
46217;DHT22;47258;59.424;13.482;2023-09-18T10:53:09;14.80;99.90
46217;DHT22;47258;59.424;13.482;2023-09-18T10:55:37;14.70;99.90
46217;DHT22;47258;59.424;13.482;2023-09-18T10:58:05;14.60;99.90
46217;DHT22;47258;59.424;13.482;2023-09-18T11:00:32;14.50;99.90
46217;DHT22;47258;59.424;13.482;2023-09-18T11:03:13;14.40;99.90
46217;DHT22;47258;59.424;13.482;2023-09-18T11:05:44;14.30;99.90
46217;DHT22;47258;59.424;13.482;2023-09-18T11:08:29;14.30;99.90
46217;DHT22;47258;59.424;13.482;2023-09-18T11:11:02;14.20;99.90
46217;DHT22;47258;59.424;13.482;2023-09-18T11:13:38;14.20;99.90
46217;DHT22;47258;59.424;13.482;2023-09-18T11:16:32;14.10;99.90
46217;DHT22;47258;59.424;13.482;2023-09-18T11:19:11;14.10;99.90
46217;DHT22;47258;59.424;13.482;2023-09-18T11:21:39;14.10;99.90
46217;DHT22;47258;59.424;13.482;2023-09-18T11:24:07;14.20;99.90
46217;DHT22;47258;59.424;13.482;2023-09-18T11:26:40;14.20;99.90
46217;DHT22;47258;59.424;13.482;2023-09-18T11:29:09;14.20;99.90
46217;DHT22;47258;59.424;13.482;2023-09-18T11:31:43;14.30;99.90
46217;DHT22;47258;59.424;13.482;2023-09-18T11:34:15;14.30;99.90
46217;DHT22;47258;59.424;13.482;2023-09-18T11:36:42;14.50;99.90
46217;DHT22;47258;59.424;13.482;2023-09-18T11:39:09;14.60;99.90
46217;DHT22;47258;59.424;13.482;2023-09-18T11:41:39;14.70;99.90
46217;DHT22;47258;59.424;13.482;2023-09-18T11:44:31;14.80;99.90
46217;DHT22;47258;59.424;13.482;2023-09-18T11:46:58;14.80;99.90
46217;DHT22;47258;59.424;13.482;2023-09-18T11:49:26;14.90;99.90
46217;DHT22;47258;59.424;13.482;2023-09-18T11:51:54;15.00;99.90
46217;DHT22;47258;59.424;13.482;2023-09-18T11:54:21;15.10;99.90
46217;DHT22;47258;59.424;13.482;2023-09-18T11:56:50;15.20;99.90
46217;DHT22;47258;59.424;13.482;2023-09-18T11:59:18;15.20;99.90
46217;DHT22;47258;59.424;13.482;2023-09-18T12:01:53;15.30;99.90
46217;DHT22;47258;59.424;13.482;2023-09-18T12:04:27;15.40;99.90
46217;DHT22;47258;59.424;13.482;2023-09-18T12:06:55;15.50;99.90
46217;DHT22;47258;59.424;13.482;2023-09-18T12:09:21;15.60;99.90
46217;DHT22;47258;59.424;13.482;2023-09-18T12:11:52;15.70;99.90
46217;DHT22;47258;59.424;13.482;2023-09-18T12:14:21;15.70;99.90
46217;DHT22;47258;59.424;13.482;2023-09-18T12:16:48;15.80;99.90
46217;DHT22;47258;59.424;13.482;2023-09-18T12:19:16;15.80;99.90
46217;DHT22;47258;59.424;13.482;2023-09-18T12:21:46;15.90;99.90
46217;DHT22;47258;59.424;13.482;2023-09-18T12:24:14;15.90;99.90
46217;DHT22;47258;59.424;13.482;2023-09-18T12:26:41;15.90;99.90
46217;DHT22;47258;59.424;13.482;2023-09-18T12:29:10;15.90;99.90
46217;DHT22;47258;59.424;13.482;2023-09-18T12:31:37;16.00;99.90
46217;DHT22;47258;59.424;13.482;2023-09-18T12:34:05;16.00;99.90
46217;DHT22;47258;59.424;13.482;2023-09-18T12:36:41;16.00;99.90
46217;DHT22;47258;59.424;13.482;2023-09-18T12:39:08;16.00;99.90
46217;DHT22;47258;59.424;13.482;2023-09-18T12:41:36;16.00;99.90
46217;DHT22;47258;59.424;13.482;2023-09-18T12:44:05;16.00;99.90
46217;DHT22;47258;59.424;13.482;2023-09-18T12:46:34;16.00;99.90
46217;DHT22;47258;59.424;13.482;2023-09-18T12:49:19;15.90;99.90
46217;DHT22;47258;59.424;13.482;2023-09-18T12:51:55;16.00;99.90
46217;DHT22;47258;59.424;13.482;2023-09-18T12:54:36;15.90;99.90
46217;DHT22;47258;59.424;13.482;2023-09-18T12:57:04;15.90;99.90
46217;DHT22;47258;59.424;13.482;2023-09-18T12:59:32;16.00;99.90
46217;DHT22;47258;59.424;13.482;2023-09-18T13:02:00;16.00;99.90
46217;DHT22;47258;59.424;13.482;2023-09-18T13:04:30;16.00;99.90
46217;DHT22;47258;59.424;13.482;2023-09-18T13:07:06;16.00;99.90
46217;DHT22;47258;59.424;13.482;2023-09-18T13:09:34;16.00;99.90
46217;DHT22;47258;59.424;13.482;2023-09-18T13:12:03;16.00;99.90
46217;DHT22;47258;59.424;13.482;2023-09-18T13:14:49;16.10;99.90
46217;DHT22;47258;59.424;13.482;2023-09-18T13:17:19;16.10;99.90
46217;DHT22;47258;59.424;13.482;2023-09-18T13:19:45;16.20;99.90
46217;DHT22;47258;59.424;13.482;2023-09-18T13:22:22;16.30;99.90
46217;DHT22;47258;59.424;13.482;2023-09-18T13:24:55;16.30;99.90
46217;DHT22;47258;59.424;13.482;2023-09-18T13:27:22;16.40;99.90
46217;DHT22;47258;59.424;13.482;2023-09-18T13:29:51;16.40;99.90
46217;DHT22;47258;59.424;13.482;2023-09-18T13:32:20;16.30;99.90
46217;DHT22;47258;59.424;13.482;2023-09-18T13:34:47;16.30;99.90
46217;DHT22;47258;59.424;13.482;2023-09-18T13:37:14;16.30;99.90
46217;DHT22;47258;59.424;13.482;2023-09-18T13:39:42;16.30;99.90
46217;DHT22;47258;59.424;13.482;2023-09-18T13:42:11;16.30;99.90
46217;DHT22;47258;59.424;13.482;2023-09-18T13:44:38;16.30;99.90
46217;DHT22;47258;59.424;13.482;2023-09-18T13:47:05;16.40;99.90
46217;DHT22;47258;59.424;13.482;2023-09-18T13:49:33;16.40;99.90
46217;DHT22;47258;59.424;13.482;2023-09-18T13:52:00;16.40;99.90
46217;DHT22;47258;59.424;13.482;2023-09-18T13:54:27;16.30;99.90
46217;DHT22;47258;59.424;13.482;2023-09-18T13:56:55;16.30;99.90
46217;DHT22;47258;59.424;13.482;2023-09-18T13:59:22;16.30;99.90
46217;DHT22;47258;59.424;13.482;2023-09-18T14:01:49;16.30;99.90
46217;DHT22;47258;59.424;13.482;2023-09-18T14:04:17;16.30;99.90
46217;DHT22;47258;59.424;13.482;2023-09-18T14:06:46;16.20;99.90
46217;DHT22;47258;59.424;13.482;2023-09-18T14:09:13;16.20;99.90
46217;DHT22;47258;59.424;13.482;2023-09-18T14:11:40;16.20;99.90
46217;DHT22;47258;59.424;13.482;2023-09-18T14:14:07;16.20;99.90
46217;DHT22;47258;59.424;13.482;2023-09-18T14:16:34;16.20;99.90
46217;DHT22;47258;59.424;13.482;2023-09-18T14:19:01;16.20;99.90
46217;DHT22;47258;59.424;13.482;2023-09-18T14:21:27;16.20;99.90
46217;DHT22;47258;59.424;13.482;2023-09-18T14:23:57;16.20;99.90
46217;DHT22;47258;59.424;13.482;2023-09-18T14:26:24;16.20;99.90
46217;DHT22;47258;59.424;13.482;2023-09-18T14:28:51;16.30;99.90
46217;DHT22;47258;59.424;13.482;2023-09-18T14:31:18;16.20;99.90
46217;DHT22;47258;59.424;13.482;2023-09-18T14:33:45;16.30;99.90
46217;DHT22;47258;59.424;13.482;2023-09-18T14:36:12;16.20;99.90
46217;DHT22;47258;59.424;13.482;2023-09-18T14:38:39;16.20;99.90
46217;DHT22;47258;59.424;13.482;2023-09-18T14:41:07;16.20;99.90
46217;DHT22;47258;59.424;13.482;2023-09-18T14:43:35;16.20;99.90
46217;DHT22;47258;59.424;13.482;2023-09-18T14:46:02;16.20;99.90
46217;DHT22;47258;59.424;13.482;2023-09-18T14:48:29;16.10;99.90
46217;DHT22;47258;59.424;13.482;2023-09-18T14:50:58;16.10;99.90
46217;DHT22;47258;59.424;13.482;2023-09-18T14:53:25;16.10;99.90
46217;DHT22;47258;59.424;13.482;2023-09-18T14:55:52;16.10;99.90
46217;DHT22;47258;59.424;13.482;2023-09-18T14:58:22;16.10;99.90
46217;DHT22;47258;59.424;13.482;2023-09-18T15:00:49;16.10;99.90
46217;DHT22;47258;59.424;13.482;2023-09-18T15:03:16;16.10;99.90
46217;DHT22;47258;59.424;13.482;2023-09-18T15:05:43;16.00;99.90
46217;DHT22;47258;59.424;13.482;2023-09-18T15:08:10;16.00;99.90
46217;DHT22;47258;59.424;13.482;2023-09-18T15:10:37;16.00;99.90
46217;DHT22;47258;59.424;13.482;2023-09-18T15:13:04;16.00;99.90
46217;DHT22;47258;59.424;13.482;2023-09-18T15:15:32;15.90;99.90
46217;DHT22;47258;59.424;13.482;2023-09-18T15:18:01;15.90;99.90
46217;DHT22;47258;59.424;13.482;2023-09-18T15:20:28;15.90;99.90
46217;DHT22;47258;59.424;13.482;2023-09-18T15:22:55;15.80;99.90
46217;DHT22;47258;59.424;13.482;2023-09-18T15:25:22;15.80;99.90
46217;DHT22;47258;59.424;13.482;2023-09-18T15:27:49;15.80;99.90
46217;DHT22;47258;59.424;13.482;2023-09-18T15:30:16;15.80;99.90